Terminal Aerodrome Forecast
Issued by NWS Grand Forks, ND

Home | Current Version | Previous Version | Graphics & Text | Print | Product List | Glossary On
Versions: 1 2 3 4 5 6 7 8 9 10 11 12 13 14 15 16 17 18 19 20
000
FTUS43 KFGF 210520
TAFGFK
TAF
KGFK 210520Z 2106/2206 09007KT P6SM VCSH BKN130
     FM211500 12011KT P6SM SCT200
     FM212300 09008KT P6SM VCTS BKN080CB
     FM220400 VRB04KT P6SM BKN100=

USA.gov is the U.S. government's official web portal to all federal, state and local government web resources and services.